Aviation Digital Data Service (ADDS)

Output produced by TAFs form (1830 UTC 27 July 2017)
found at http://aviationweather.gov/adds/tafs/
 
KROW 271740Z 2718/2818 12010KT P6SM SCT080 SCT120 
     FM272200 14010KT P6SM VCTS BKN080CB 
     TEMPO 2722/2801 VRB20G30KT -TSRA BKN070CB 
     FM280100 07010KT P6SM VCSH BKN080 
     FM280700 36011KT P6SM SCT100